sensor_id;sensor_type;location;lat;lon;timestamp;temperature;humidity
48836;DHT22;62581;47.342;7.908;2022-12-29T00:02:19;4.00;99.90
48836;DHT22;62581;47.342;7.908;2022-12-29T00:04:46;4.00;99.90
48836;DHT22;62581;47.342;7.908;2022-12-29T00:07:12;4.00;99.90
48836;DHT22;62581;47.342;7.908;2022-12-29T00:09:39;4.10;99.90
48836;DHT22;62581;47.342;7.908;2022-12-29T00:12:06;4.10;99.90
48836;DHT22;62581;47.342;7.908;2022-12-29T00:14:33;4.10;99.90
48836;DHT22;62581;47.342;7.908;2022-12-29T00:17:18;4.10;99.90
48836;DHT22;62581;47.342;7.908;2022-12-29T00:19:45;4.20;99.90
48836;DHT22;62581;47.342;7.908;2022-12-29T00:22:29;4.20;99.90
48836;DHT22;62581;47.342;7.908;2022-12-29T00:25:14;4.20;99.90
48836;DHT22;62581;47.342;7.908;2022-12-29T00:27:58;4.20;99.90
48836;DHT22;62581;47.342;7.908;2022-12-29T00:30:43;4.20;99.90
48836;DHT22;62581;47.342;7.908;2022-12-29T00:33:29;4.30;99.90
48836;DHT22;62581;47.342;7.908;2022-12-29T00:36:15;4.30;99.90
48836;DHT22;62581;47.342;7.908;2022-12-29T00:38:43;4.30;99.90
48836;DHT22;62581;47.342;7.908;2022-12-29T00:41:29;4.30;99.90
48836;DHT22;62581;47.342;7.908;2022-12-29T00:44:13;4.30;99.90
48836;DHT22;62581;47.342;7.908;2022-12-29T00:46:41;4.40;99.90
48836;DHT22;62581;47.342;7.908;2022-12-29T00:49:11;4.40;99.90
48836;DHT22;62581;47.342;7.908;2022-12-29T00:51:57;4.30;99.90
48836;DHT22;62581;47.342;7.908;2022-12-29T00:54:24;4.30;99.90
48836;DHT22;62581;47.342;7.908;2022-12-29T00:56:51;4.30;99.90
48836;DHT22;62581;47.342;7.908;2022-12-29T00:59:19;4.30;99.90
48836;DHT22;62581;47.342;7.908;2022-12-29T01:01:46;4.30;99.90
48836;DHT22;62581;47.342;7.908;2022-12-29T01:04:14;4.30;99.90
48836;DHT22;62581;47.342;7.908;2022-12-29T01:06:41;4.40;99.90
48836;DHT22;62581;47.342;7.908;2022-12-29T01:09:08;4.40;99.90
48836;DHT22;62581;47.342;7.908;2022-12-29T01:11:52;4.40;99.90
48836;DHT22;62581;47.342;7.908;2022-12-29T01:14:19;4.50;99.90
48836;DHT22;62581;47.342;7.908;2022-12-29T01:16:46;4.50;99.90
48836;DHT22;62581;47.342;7.908;2022-12-29T01:19:15;4.50;99.90
48836;DHT22;62581;47.342;7.908;2022-12-29T01:21:42;4.40;99.90
48836;DHT22;62581;47.342;7.908;2022-12-29T01:24:09;4.40;99.90
48836;DHT22;62581;47.342;7.908;2022-12-29T01:26:36;4.40;99.90
48836;DHT22;62581;47.342;7.908;2022-12-29T01:29:02;4.50;99.90
48836;DHT22;62581;47.342;7.908;2022-12-29T01:31:29;4.50;99.90
48836;DHT22;62581;47.342;7.908;2022-12-29T01:33:56;4.50;99.90
48836;DHT22;62581;47.342;7.908;2022-12-29T01:36:24;4.50;99.90
48836;DHT22;62581;47.342;7.908;2022-12-29T01:38:51;4.50;99.90
48836;DHT22;62581;47.342;7.908;2022-12-29T01:41:18;4.50;99.90
48836;DHT22;62581;47.342;7.908;2022-12-29T01:43:46;4.50;99.90
48836;DHT22;62581;47.342;7.908;2022-12-29T01:46:20;4.50;99.90
48836;DHT22;62581;47.342;7.908;2022-12-29T01:48:50;4.50;99.90
48836;DHT22;62581;47.342;7.908;2022-12-29T01:51:18;4.50;99.90
48836;DHT22;62581;47.342;7.908;2022-12-29T01:53:46;4.60;99.90
48836;DHT22;62581;47.342;7.908;2022-12-29T01:56:14;4.60;99.90
48836;DHT22;62581;47.342;7.908;2022-12-29T01:58:43;4.70;99.90
48836;DHT22;62581;47.342;7.908;2022-12-29T02:01:10;4.80;99.90
48836;DHT22;62581;47.342;7.908;2022-12-29T02:03:37;4.80;99.90
48836;DHT22;62581;47.342;7.908;2022-12-29T02:06:05;4.90;99.90
48836;DHT22;62581;47.342;7.908;2022-12-29T02:08:34;4.90;99.90
48836;DHT22;62581;47.342;7.908;2022-12-29T02:11:03;4.90;99.90
48836;DHT22;62581;47.342;7.908;2022-12-29T02:13:30;4.90;99.90
48836;DHT22;62581;47.342;7.908;2022-12-29T02:15:58;4.90;99.90
48836;DHT22;62581;47.342;7.908;2022-12-29T02:18:32;4.90;99.90
48836;DHT22;62581;47.342;7.908;2022-12-29T02:21:24;5.00;99.90
48836;DHT22;62581;47.342;7.908;2022-12-29T02:24:10;5.10;99.90
48836;DHT22;62581;47.342;7.908;2022-12-29T02:27:00;5.20;99.90
48836;DHT22;62581;47.342;7.908;2022-12-29T02:32:17;5.30;99.90
48836;DHT22;62581;47.342;7.908;2022-12-29T02:34:47;5.30;99.90
48836;DHT22;62581;47.342;7.908;2022-12-29T02:37:18;5.40;99.90
48836;DHT22;62581;47.342;7.908;2022-12-29T02:39:47;5.40;99.90
48836;DHT22;62581;47.342;7.908;2022-12-29T02:42:19;5.40;99.90
48836;DHT22;62581;47.342;7.908;2022-12-29T02:44:51;5.40;99.90
48836;DHT22;62581;47.342;7.908;2022-12-29T02:47:23;5.30;99.90
48836;DHT22;62581;47.342;7.908;2022-12-29T02:49:54;5.30;99.90
48836;DHT22;62581;47.342;7.908;2022-12-29T02:52:25;5.30;99.90
48836;DHT22;62581;47.342;7.908;2022-12-29T02:54:53;5.40;99.90
48836;DHT22;62581;47.342;7.908;2022-12-29T02:57:27;5.40;99.90
48836;DHT22;62581;47.342;7.908;2022-12-29T02:59:55;5.50;99.90
48836;DHT22;62581;47.342;7.908;2022-12-29T03:02:30;5.50;99.90
48836;DHT22;62581;47.342;7.908;2022-12-29T03:07:52;5.50;99.90
48836;DHT22;62581;47.342;7.908;2022-12-29T03:10:25;5.60;99.90
48836;DHT22;62581;47.342;7.908;2022-12-29T03:12:56;5.50;99.90
48836;DHT22;62581;47.342;7.908;2022-12-29T03:15:52;5.50;99.90
48836;DHT22;62581;47.342;7.908;2022-12-29T03:18:34;5.50;99.90
48836;DHT22;62581;47.342;7.908;2022-12-29T03:21:05;5.50;99.90
48836;DHT22;62581;47.342;7.908;2022-12-29T03:23:34;5.50;99.90
48836;DHT22;62581;47.342;7.908;2022-12-29T03:26:03;5.60;99.90
48836;DHT22;62581;47.342;7.908;2022-12-29T03:28:32;5.60;99.90
48836;DHT22;62581;47.342;7.908;2022-12-29T03:31:00;5.60;99.90
48836;DHT22;62581;47.342;7.908;2022-12-29T03:33:28;5.60;99.90
48836;DHT22;62581;47.342;7.908;2022-12-29T03:35:58;5.60;99.90
48836;DHT22;62581;47.342;7.908;2022-12-29T03:38:27;5.60;99.90
48836;DHT22;62581;47.342;7.908;2022-12-29T03:40:57;5.60;99.90
48836;DHT22;62581;47.342;7.908;2022-12-29T03:43:25;5.60;99.90
48836;DHT22;62581;47.342;7.908;2022-12-29T03:45:52;5.70;99.90
48836;DHT22;62581;47.342;7.908;2022-12-29T03:48:18;5.60;99.90
48836;DHT22;62581;47.342;7.908;2022-12-29T03:50:45;5.70;99.90
48836;DHT22;62581;47.342;7.908;2022-12-29T03:53:13;5.70;99.90
48836;DHT22;62581;47.342;7.908;2022-12-29T03:55:40;5.80;99.90
48836;DHT22;62581;47.342;7.908;2022-12-29T03:58:07;5.80;99.90
48836;DHT22;62581;47.342;7.908;2022-12-29T04:00:34;5.80;99.90
48836;DHT22;62581;47.342;7.908;2022-12-29T04:03:00;5.80;99.90
48836;DHT22;62581;47.342;7.908;2022-12-29T04:05:27;5.80;99.90
48836;DHT22;62581;47.342;7.908;2022-12-29T04:07:54;5.80;99.90
48836;DHT22;62581;47.342;7.908;2022-12-29T04:10:22;5.70;99.90
48836;DHT22;62581;47.342;7.908;2022-12-29T04:12:49;5.70;99.90
48836;DHT22;62581;47.342;7.908;2022-12-29T04:15:16;5.70;99.90
48836;DHT22;62581;47.342;7.908;2022-12-29T04:17:42;5.70;99.90
48836;DHT22;62581;47.342;7.908;2022-12-29T04:20:09;5.70;99.90
48836;DHT22;62581;47.342;7.908;2022-12-29T04:22:57;5.70;99.90
48836;DHT22;62581;47.342;7.908;2022-12-29T04:25:26;5.70;99.90
48836;DHT22;62581;47.342;7.908;2022-12-29T04:27:52;5.70;99.90
48836;DHT22;62581;47.342;7.908;2022-12-29T04:30:19;5.70;99.90
48836;DHT22;62581;47.342;7.908;2022-12-29T04:32:46;5.70;99.90
48836;DHT22;62581;47.342;7.908;2022-12-29T04:35:13;5.80;99.90
48836;DHT22;62581;47.342;7.908;2022-12-29T04:37:39;5.80;99.90
48836;DHT22;62581;47.342;7.908;2022-12-29T04:40:07;5.90;99.90
48836;DHT22;62581;47.342;7.908;2022-12-29T04:42:35;5.90;99.90
48836;DHT22;62581;47.342;7.908;2022-12-29T04:45:02;6.00;99.90
48836;DHT22;62581;47.342;7.908;2022-12-29T04:47:29;6.00;99.90
48836;DHT22;62581;47.342;7.908;2022-12-29T04:49:56;6.10;99.90
48836;DHT22;62581;47.342;7.908;2022-12-29T04:52:22;6.20;99.90
48836;DHT22;62581;47.342;7.908;2022-12-29T04:54:49;6.20;99.90
48836;DHT22;62581;47.342;7.908;2022-12-29T04:57:16;6.30;99.90
48836;DHT22;62581;47.342;7.908;2022-12-29T04:59:44;6.40;99.90
48836;DHT22;62581;47.342;7.908;2022-12-29T05:02:11;6.40;99.90
48836;DHT22;62581;47.342;7.908;2022-12-29T05:04:38;6.50;99.90
48836;DHT22;62581;47.342;7.908;2022-12-29T05:07:04;6.50;99.90
48836;DHT22;62581;47.342;7.908;2022-12-29T05:09:31;6.50;99.90
48836;DHT22;62581;47.342;7.908;2022-12-29T05:11:58;6.50;99.90
48836;DHT22;62581;47.342;7.908;2022-12-29T05:14:25;6.60;99.90
48836;DHT22;62581;47.342;7.908;2022-12-29T05:16:53;6.60;99.90
48836;DHT22;62581;47.342;7.908;2022-12-29T05:19:19;6.60;99.90
48836;DHT22;62581;47.342;7.908;2022-12-29T05:21:46;6.60;99.90
48836;DHT22;62581;47.342;7.908;2022-12-29T05:24:13;6.70;99.90
48836;DHT22;62581;47.342;7.908;2022-12-29T05:26:40;6.80;99.90
48836;DHT22;62581;47.342;7.908;2022-12-29T05:29:07;6.80;99.90
48836;DHT22;62581;47.342;7.908;2022-12-29T05:31:34;6.80;99.90
48836;DHT22;62581;47.342;7.908;2022-12-29T05:34:02;6.90;99.90
48836;DHT22;62581;47.342;7.908;2022-12-29T05:36:29;7.00;99.90
48836;DHT22;62581;47.342;7.908;2022-12-29T05:38:56;7.10;99.90
48836;DHT22;62581;47.342;7.908;2022-12-29T05:41:23;7.20;99.90
48836;DHT22;62581;47.342;7.908;2022-12-29T05:43:50;7.30;99.90
48836;DHT22;62581;47.342;7.908;2022-12-29T05:46:16;7.40;99.90
48836;DHT22;62581;47.342;7.908;2022-12-29T05:48:43;7.40;99.90
48836;DHT22;62581;47.342;7.908;2022-12-29T05:51:11;7.50;99.90
48836;DHT22;62581;47.342;7.908;2022-12-29T05:53:38;7.50;99.90
48836;DHT22;62581;47.342;7.908;2022-12-29T05:56:05;7.60;99.90
48836;DHT22;62581;47.342;7.908;2022-12-29T05:58:32;7.60;99.90
48836;DHT22;62581;47.342;7.908;2022-12-29T06:00:59;7.70;99.90
48836;DHT22;62581;47.342;7.908;2022-12-29T06:03:25;7.90;99.90
48836;DHT22;62581;47.342;7.908;2022-12-29T06:05:52;8.00;99.90
48836;DHT22;62581;47.342;7.908;2022-12-29T06:08:21;8.10;99.90
48836;DHT22;62581;47.342;7.908;2022-12-29T06:10:47;8.20;99.90
48836;DHT22;62581;47.342;7.908;2022-12-29T06:13:14;8.40;99.90
48836;DHT22;62581;47.342;7.908;2022-12-29T06:15:41;8.50;99.90
48836;DHT22;62581;47.342;7.908;2022-12-29T06:18:08;8.60;99.90
48836;DHT22;62581;47.342;7.908;2022-12-29T06:20:34;8.70;99.90
48836;DHT22;62581;47.342;7.908;2022-12-29T06:23:01;8.80;99.90
48836;DHT22;62581;47.342;7.908;2022-12-29T06:25:30;9.00;99.90
48836;DHT22;62581;47.342;7.908;2022-12-29T06:27:58;9.00;99.90
48836;DHT22;62581;47.342;7.908;2022-12-29T06:30:25;9.10;99.90
48836;DHT22;62581;47.342;7.908;2022-12-29T06:32:52;9.20;99.90
48836;DHT22;62581;47.342;7.908;2022-12-29T06:35:19;9.30;99.90
48836;DHT22;62581;47.342;7.908;2022-12-29T06:37:47;9.40;99.90
48836;DHT22;62581;47.342;7.908;2022-12-29T06:40:14;9.50;99.90
48836;DHT22;62581;47.342;7.908;2022-12-29T06:42:42;9.60;99.90
48836;DHT22;62581;47.342;7.908;2022-12-29T06:45:09;9.70;99.90
48836;DHT22;62581;47.342;7.908;2022-12-29T06:47:36;9.80;99.90
48836;DHT22;62581;47.342;7.908;2022-12-29T06:50:03;9.80;99.90
48836;DHT22;62581;47.342;7.908;2022-12-29T06:52:30;9.70;99.90
48836;DHT22;62581;47.342;7.908;2022-12-29T06:54:57;9.80;99.90
48836;DHT22;62581;47.342;7.908;2022-12-29T06:57:24;9.70;99.90
48836;DHT22;62581;47.342;7.908;2022-12-29T06:59:53;9.70;99.90
48836;DHT22;62581;47.342;7.908;2022-12-29T07:02:21;9.60;99.90
48836;DHT22;62581;47.342;7.908;2022-12-29T07:04:47;9.60;99.90
48836;DHT22;62581;47.342;7.908;2022-12-29T07:07:14;9.60;99.90
48836;DHT22;62581;47.342;7.908;2022-12-29T07:09:41;9.50;99.90
48836;DHT22;62581;47.342;7.908;2022-12-29T07:12:08;9.50;99.90
48836;DHT22;62581;47.342;7.908;2022-12-29T07:14:34;9.60;99.90
48836;DHT22;62581;47.342;7.908;2022-12-29T07:17:03;9.60;99.90
48836;DHT22;62581;47.342;7.908;2022-12-29T07:19:31;9.50;99.90
48836;DHT22;62581;47.342;7.908;2022-12-29T07:21:58;9.50;99.90
48836;DHT22;62581;47.342;7.908;2022-12-29T07:24:25;9.50;99.90
48836;DHT22;62581;47.342;7.908;2022-12-29T07:26:51;9.40;99.90
48836;DHT22;62581;47.342;7.908;2022-12-29T07:29:18;9.40;99.90
48836;DHT22;62581;47.342;7.908;2022-12-29T07:31:45;9.40;99.90
48836;DHT22;62581;47.342;7.908;2022-12-29T07:34:13;9.50;99.90
48836;DHT22;62581;47.342;7.908;2022-12-29T07:36:40;9.50;99.90
48836;DHT22;62581;47.342;7.908;2022-12-29T07:39:07;9.40;99.90
48836;DHT22;62581;47.342;7.908;2022-12-29T07:41:34;9.40;99.90
48836;DHT22;62581;47.342;7.908;2022-12-29T07:44:01;9.40;99.90
48836;DHT22;62581;47.342;7.908;2022-12-29T07:46:27;9.40;99.90
48836;DHT22;62581;47.342;7.908;2022-12-29T07:48:54;9.40;99.90
48836;DHT22;62581;47.342;7.908;2022-12-29T07:51:22;9.40;99.90
48836;DHT22;62581;47.342;7.908;2022-12-29T07:53:49;9.40;99.90
48836;DHT22;62581;47.342;7.908;2022-12-29T07:56:16;9.40;99.90
48836;DHT22;62581;47.342;7.908;2022-12-29T07:58:42;9.40;99.90
48836;DHT22;62581;47.342;7.908;2022-12-29T08:01:09;9.40;99.90
48836;DHT22;62581;47.342;7.908;2022-12-29T08:03:36;9.40;99.90
48836;DHT22;62581;47.342;7.908;2022-12-29T08:06:03;9.40;99.90
48836;DHT22;62581;47.342;7.908;2022-12-29T08:08:31;9.40;99.90
48836;DHT22;62581;47.342;7.908;2022-12-29T08:10:58;9.50;99.90
48836;DHT22;62581;47.342;7.908;2022-12-29T08:13:25;9.70;99.90
48836;DHT22;62581;47.342;7.908;2022-12-29T08:15:51;9.70;99.90
48836;DHT22;62581;47.342;7.908;2022-12-29T08:18:18;9.80;99.90
48836;DHT22;62581;47.342;7.908;2022-12-29T08:20:45;9.90;99.90
48836;DHT22;62581;47.342;7.908;2022-12-29T08:23:12;9.90;99.90
48836;DHT22;62581;47.342;7.908;2022-12-29T08:25:40;9.90;99.90
48836;DHT22;62581;47.342;7.908;2022-12-29T08:28:07;10.00;99.90
48836;DHT22;62581;47.342;7.908;2022-12-29T08:30:35;10.00;99.90
48836;DHT22;62581;47.342;7.908;2022-12-29T08:33:02;10.10;99.90
48836;DHT22;62581;47.342;7.908;2022-12-29T08:35:28;10.20;99.90
48836;DHT22;62581;47.342;7.908;2022-12-29T08:37:55;10.20;99.90
48836;DHT22;62581;47.342;7.908;2022-12-29T08:40:22;10.30;99.90
48836;DHT22;62581;47.342;7.908;2022-12-29T08:42:51;10.30;99.90
48836;DHT22;62581;47.342;7.908;2022-12-29T08:45:17;10.50;99.90
48836;DHT22;62581;47.342;7.908;2022-12-29T08:47:44;10.60;99.90
48836;DHT22;62581;47.342;7.908;2022-12-29T08:50:11;10.80;99.90
48836;DHT22;62581;47.342;7.908;2022-12-29T08:52:38;10.90;99.90
48836;DHT22;62581;47.342;7.908;2022-12-29T08:55:05;11.10;99.90
48836;DHT22;62581;47.342;7.908;2022-12-29T08:57:31;11.20;99.90
48836;DHT22;62581;47.342;7.908;2022-12-29T09:00:00;11.30;99.90
48836;DHT22;62581;47.342;7.908;2022-12-29T09:02:27;11.30;99.90
48836;DHT22;62581;47.342;7.908;2022-12-29T09:04:53;11.40;99.90
48836;DHT22;62581;47.342;7.908;2022-12-29T09:07:22;11.50;99.90
48836;DHT22;62581;47.342;7.908;2022-12-29T09:09:49;11.50;99.90
48836;DHT22;62581;47.342;7.908;2022-12-29T09:12:17;11.50;99.90
48836;DHT22;62581;47.342;7.908;2022-12-29T09:14:45;11.60;99.90
48836;DHT22;62581;47.342;7.908;2022-12-29T09:17:13;11.60;99.90
48836;DHT22;62581;47.342;7.908;2022-12-29T09:19:58;11.70;99.90
48836;DHT22;62581;47.342;7.908;2022-12-29T09:22:25;11.80;99.90
48836;DHT22;62581;47.342;7.908;2022-12-29T09:24:51;11.80;99.90
48836;DHT22;62581;47.342;7.908;2022-12-29T09:27:18;11.80;99.90
48836;DHT22;62581;47.342;7.908;2022-12-29T09:29:45;11.80;99.90
48836;DHT22;62581;47.342;7.908;2022-12-29T09:32:13;11.90;99.90
48836;DHT22;62581;47.342;7.908;2022-12-29T09:34:40;11.90;99.90
48836;DHT22;62581;47.342;7.908;2022-12-29T09:37:07;12.00;99.90
48836;DHT22;62581;47.342;7.908;2022-12-29T09:39:33;12.00;99.90
48836;DHT22;62581;47.342;7.908;2022-12-29T09:42:01;12.00;99.90
48836;DHT22;62581;47.342;7.908;2022-12-29T09:44:38;12.10;99.90
48836;DHT22;62581;47.342;7.908;2022-12-29T09:47:09;12.10;99.90
48836;DHT22;62581;47.342;7.908;2022-12-29T09:49:40;12.10;99.90
48836;DHT22;62581;47.342;7.908;2022-12-29T09:52:10;12.20;99.90
48836;DHT22;62581;47.342;7.908;2022-12-29T09:54:41;12.20;99.90
48836;DHT22;62581;47.342;7.908;2022-12-29T09:57:10;12.30;99.90
48836;DHT22;62581;47.342;7.908;2022-12-29T09:59:41;12.20;99.90
48836;DHT22;62581;47.342;7.908;2022-12-29T10:02:12;12.20;99.90
48836;DHT22;62581;47.342;7.908;2022-12-29T10:04:44;12.10;99.90
48836;DHT22;62581;47.342;7.908;2022-12-29T10:07:13;12.20;99.90
48836;DHT22;62581;47.342;7.908;2022-12-29T10:09:56;12.10;99.90
48836;DHT22;62581;47.342;7.908;2022-12-29T10:12:29;12.20;99.90
48836;DHT22;62581;47.342;7.908;2022-12-29T10:15:02;12.20;99.90
48836;DHT22;62581;47.342;7.908;2022-12-29T10:17:32;12.40;99.90
48836;DHT22;62581;47.342;7.908;2022-12-29T10:22:51;12.60;99.90
48836;DHT22;62581;47.342;7.908;2022-12-29T10:25:25;12.70;99.90
48836;DHT22;62581;47.342;7.908;2022-12-29T10:27:53;12.80;99.90
48836;DHT22;62581;47.342;7.908;2022-12-29T10:30:20;12.80;99.90
48836;DHT22;62581;47.342;7.908;2022-12-29T10:32:47;12.90;99.90
48836;DHT22;62581;47.342;7.908;2022-12-29T10:35:16;13.00;99.90
48836;DHT22;62581;47.342;7.908;2022-12-29T10:37:45;13.00;99.90
48836;DHT22;62581;47.342;7.908;2022-12-29T10:40:18;13.10;99.90
48836;DHT22;62581;47.342;7.908;2022-12-29T10:42:47;13.10;99.90
48836;DHT22;62581;47.342;7.908;2022-12-29T10:45:17;13.10;99.90
48836;DHT22;62581;47.342;7.908;2022-12-29T10:47:47;13.20;99.90
48836;DHT22;62581;47.342;7.908;2022-12-29T10:50:16;13.30;99.90
48836;DHT22;62581;47.342;7.908;2022-12-29T10:52:43;13.30;99.90
48836;DHT22;62581;47.342;7.908;2022-12-29T10:55:12;13.40;99.90
48836;DHT22;62581;47.342;7.908;2022-12-29T10:57:41;13.50;99.90
48836;DHT22;62581;47.342;7.908;2022-12-29T11:00:11;13.50;99.90
48836;DHT22;62581;47.342;7.908;2022-12-29T11:02:43;13.50;99.90
48836;DHT22;62581;47.342;7.908;2022-12-29T11:05:13;13.40;99.90
48836;DHT22;62581;47.342;7.908;2022-12-29T11:07:43;13.40;99.90
48836;DHT22;62581;47.342;7.908;2022-12-29T11:10:17;13.50;99.90
48836;DHT22;62581;47.342;7.908;2022-12-29T11:12:55;13.40;99.90
48836;DHT22;62581;47.342;7.908;2022-12-29T11:15:22;13.20;99.90
48836;DHT22;62581;47.342;7.908;2022-12-29T11:17:50;13.10;99.90
48836;DHT22;62581;47.342;7.908;2022-12-29T11:20:31;13.00;99.90
48836;DHT22;62581;47.342;7.908;2022-12-29T11:22:58;13.00;99.90
48836;DHT22;62581;47.342;7.908;2022-12-29T11:25:25;13.10;99.90
48836;DHT22;62581;47.342;7.908;2022-12-29T11:27:57;13.20;99.90
48836;DHT22;62581;47.342;7.908;2022-12-29T11:30:24;13.30;99.90
48836;DHT22;62581;47.342;7.908;2022-12-29T11:32:51;13.60;99.90
48836;DHT22;62581;47.342;7.908;2022-12-29T11:35:29;14.00;99.90
48836;DHT22;62581;47.342;7.908;2022-12-29T11:37:57;14.20;99.90
48836;DHT22;62581;47.342;7.908;2022-12-29T11:40:25;14.60;99.90
48836;DHT22;62581;47.342;7.908;2022-12-29T11:42:52;14.90;99.90
48836;DHT22;62581;47.342;7.908;2022-12-29T11:45:22;15.00;99.90
48836;DHT22;62581;47.342;7.908;2022-12-29T11:47:50;15.20;99.90
48836;DHT22;62581;47.342;7.908;2022-12-29T11:50:20;15.40;99.90
48836;DHT22;62581;47.342;7.908;2022-12-29T11:52:48;15.60;99.90
48836;DHT22;62581;47.342;7.908;2022-12-29T11:55:17;15.90;99.90
48836;DHT22;62581;47.342;7.908;2022-12-29T11:57:45;16.20;99.90
48836;DHT22;62581;47.342;7.908;2022-12-29T12:00:15;16.40;99.90
48836;DHT22;62581;47.342;7.908;2022-12-29T12:02:46;16.20;99.90
48836;DHT22;62581;47.342;7.908;2022-12-29T12:05:18;16.10;99.90
48836;DHT22;62581;47.342;7.908;2022-12-29T12:07:46;16.10;99.90
48836;DHT22;62581;47.342;7.908;2022-12-29T12:10:18;15.90;99.90
48836;DHT22;62581;47.342;7.908;2022-12-29T12:12:50;16.20;99.90
48836;DHT22;62581;47.342;7.908;2022-12-29T12:15:19;16.70;99.90
48836;DHT22;62581;47.342;7.908;2022-12-29T12:17:50;17.00;99.90
48836;DHT22;62581;47.342;7.908;2022-12-29T12:20:18;17.00;99.90
48836;DHT22;62581;47.342;7.908;2022-12-29T12:22:49;16.50;99.90
48836;DHT22;62581;47.342;7.908;2022-12-29T12:25:18;16.00;99.90
48836;DHT22;62581;47.342;7.908;2022-12-29T12:27:48;15.50;99.90
48836;DHT22;62581;47.342;7.908;2022-12-29T12:30:16;15.10;99.90
48836;DHT22;62581;47.342;7.908;2022-12-29T12:32:45;14.80;99.90
48836;DHT22;62581;47.342;7.908;2022-12-29T12:35:15;14.50;99.90
48836;DHT22;62581;47.342;7.908;2022-12-29T12:37:48;14.20;99.90
48836;DHT22;62581;47.342;7.908;2022-12-29T12:40:33;14.10;99.90
48836;DHT22;62581;47.342;7.908;2022-12-29T12:43:06;14.00;99.90
48836;DHT22;62581;47.342;7.908;2022-12-29T12:45:41;13.90;99.90
48836;DHT22;62581;47.342;7.908;2022-12-29T12:48:13;13.80;99.90
48836;DHT22;62581;47.342;7.908;2022-12-29T12:50:49;13.70;99.90
48836;DHT22;62581;47.342;7.908;2022-12-29T12:53:27;13.60;99.90
48836;DHT22;62581;47.342;7.908;2022-12-29T12:56:04;13.60;99.90
48836;DHT22;62581;47.342;7.908;2022-12-29T12:58:35;13.50;99.90
48836;DHT22;62581;47.342;7.908;2022-12-29T13:01:11;13.50;99.90
48836;DHT22;62581;47.342;7.908;2022-12-29T13:03:44;13.40;99.90
48836;DHT22;62581;47.342;7.908;2022-12-29T13:06:16;13.30;99.90
48836;DHT22;62581;47.342;7.908;2022-12-29T13:08:48;13.10;99.90
48836;DHT22;62581;47.342;7.908;2022-12-29T13:11:18;13.00;99.90
48836;DHT22;62581;47.342;7.908;2022-12-29T13:13:57;13.00;99.90
48836;DHT22;62581;47.342;7.908;2022-12-29T13:16:27;13.00;99.90
48836;DHT22;62581;47.342;7.908;2022-12-29T13:18:57;13.00;99.90
48836;DHT22;62581;47.342;7.908;2022-12-29T13:21:30;13.00;99.90
48836;DHT22;62581;47.342;7.908;2022-12-29T13:24:00;12.90;99.90
48836;DHT22;62581;47.342;7.908;2022-12-29T13:26:29;12.90;99.90
48836;DHT22;62581;47.342;7.908;2022-12-29T13:28:58;12.80;99.90
48836;DHT22;62581;47.342;7.908;2022-12-29T13:31:28;12.80;99.90
48836;DHT22;62581;47.342;7.908;2022-12-29T13:33:58;12.80;99.90
48836;DHT22;62581;47.342;7.908;2022-12-29T13:36:29;12.80;99.90
48836;DHT22;62581;47.342;7.908;2022-12-29T13:39:01;12.80;99.90
48836;DHT22;62581;47.342;7.908;2022-12-29T13:41:30;12.80;99.90
48836;DHT22;62581;47.342;7.908;2022-12-29T13:43:57;12.90;99.90
48836;DHT22;62581;47.342;7.908;2022-12-29T13:46:26;13.00;99.90
48836;DHT22;62581;47.342;7.908;2022-12-29T13:48:54;13.00;99.90
48836;DHT22;62581;47.342;7.908;2022-12-29T13:51:22;13.10;99.90
48836;DHT22;62581;47.342;7.908;2022-12-29T13:54:03;13.20;99.90
48836;DHT22;62581;47.342;7.908;2022-12-29T13:56:33;13.40;99.90
48836;DHT22;62581;47.342;7.908;2022-12-29T13:59:03;13.40;99.90
48836;DHT22;62581;47.342;7.908;2022-12-29T14:01:33;13.40;99.90
48836;DHT22;62581;47.342;7.908;2022-12-29T14:04:02;13.70;99.90
48836;DHT22;62581;47.342;7.908;2022-12-29T14:06:29;13.70;99.90
48836;DHT22;62581;47.342;7.908;2022-12-29T14:08:58;13.50;99.90
48836;DHT22;62581;47.342;7.908;2022-12-29T14:11:30;13.30;99.90
48836;DHT22;62581;47.342;7.908;2022-12-29T14:13:57;13.10;99.90
48836;DHT22;62581;47.342;7.908;2022-12-29T14:16:26;12.80;99.90
48836;DHT22;62581;47.342;7.908;2022-12-29T14:18:53;12.70;99.90
48836;DHT22;62581;47.342;7.908;2022-12-29T14:21:22;12.60;99.90
48836;DHT22;62581;47.342;7.908;2022-12-29T14:23:53;12.50;99.90
48836;DHT22;62581;47.342;7.908;2022-12-29T14:26:34;12.50;99.90
48836;DHT22;62581;47.342;7.908;2022-12-29T14:31:58;12.30;99.90
48836;DHT22;62581;47.342;7.908;2022-12-29T14:34:30;12.20;99.90
48836;DHT22;62581;47.342;7.908;2022-12-29T14:37:15;12.10;99.90
48836;DHT22;62581;47.342;7.908;2022-12-29T14:39:48;12.10;99.90
48836;DHT22;62581;47.342;7.908;2022-12-29T14:42:19;12.00;99.90
48836;DHT22;62581;47.342;7.908;2022-12-29T14:44:48;12.00;99.90
48836;DHT22;62581;47.342;7.908;2022-12-29T14:47:16;11.90;99.90
48836;DHT22;62581;47.342;7.908;2022-12-29T14:49:44;12.00;99.90
48836;DHT22;62581;47.342;7.908;2022-12-29T14:52:15;11.90;99.90
48836;DHT22;62581;47.342;7.908;2022-12-29T14:54:45;11.90;99.90
48836;DHT22;62581;47.342;7.908;2022-12-29T14:57:33;11.90;99.90
48836;DHT22;62581;47.342;7.908;2022-12-29T15:00:02;11.90;99.90
48836;DHT22;62581;47.342;7.908;2022-12-29T15:02:32;11.80;99.90
48836;DHT22;62581;47.342;7.908;2022-12-29T15:05:00;11.70;99.90
48836;DHT22;62581;47.342;7.908;2022-12-29T15:07:28;11.70;99.90
48836;DHT22;62581;47.342;7.908;2022-12-29T15:09:56;11.70;99.90
48836;DHT22;62581;47.342;7.908;2022-12-29T15:12:28;11.70;99.90
48836;DHT22;62581;47.342;7.908;2022-12-29T15:14:59;11.70;99.90
48836;DHT22;62581;47.342;7.908;2022-12-29T15:17:27;11.60;99.90
48836;DHT22;62581;47.342;7.908;2022-12-29T15:19:54;11.60;99.90
48836;DHT22;62581;47.342;7.908;2022-12-29T15:22:22;11.60;99.90
48836;DHT22;62581;47.342;7.908;2022-12-29T15:24:49;11.60;99.90
48836;DHT22;62581;47.342;7.908;2022-12-29T15:27:19;11.60;99.90
48836;DHT22;62581;47.342;7.908;2022-12-29T15:29:46;11.50;99.90
48836;DHT22;62581;47.342;7.908;2022-12-29T15:32:19;11.50;99.90
48836;DHT22;62581;47.342;7.908;2022-12-29T15:34:46;11.50;99.90
48836;DHT22;62581;47.342;7.908;2022-12-29T15:37:17;11.40;99.90
48836;DHT22;62581;47.342;7.908;2022-12-29T15:39:45;11.30;99.90
48836;DHT22;62581;47.342;7.908;2022-12-29T15:42:16;11.30;99.90
48836;DHT22;62581;47.342;7.908;2022-12-29T15:44:45;11.20;99.90
48836;DHT22;62581;47.342;7.908;2022-12-29T15:47:14;11.10;99.90
48836;DHT22;62581;47.342;7.908;2022-12-29T15:49:43;11.10;99.90
48836;DHT22;62581;47.342;7.908;2022-12-29T15:52:13;11.10;99.90
48836;DHT22;62581;47.342;7.908;2022-12-29T15:54:43;11.00;99.90
48836;DHT22;62581;47.342;7.908;2022-12-29T15:57:11;11.00;99.90
48836;DHT22;62581;47.342;7.908;2022-12-29T15:59:46;11.00;99.90
48836;DHT22;62581;47.342;7.908;2022-12-29T16:02:13;11.00;99.90
48836;DHT22;62581;47.342;7.908;2022-12-29T16:04:40;10.90;99.90
48836;DHT22;62581;47.342;7.908;2022-12-29T16:07:21;10.90;99.90